sensor_id;sensor_type;location;lat;lon;timestamp;P1;durP1;ratioP1;P2;durP2;ratioP2
38023;SDS011;23834;48.080;11.682;2022-08-01T00:00:16;2.20;;;2.10;;
38023;SDS011;23834;48.080;11.682;2022-08-01T00:02:41;2.33;;;2.23;;
38023;SDS011;23834;48.080;11.682;2022-08-01T00:05:07;3.70;;;2.33;;
38023;SDS011;23834;48.080;11.682;2022-08-01T00:07:36;2.53;;;2.43;;
38023;SDS011;23834;48.080;11.682;2022-08-01T00:10:05;2.40;;;2.30;;
38023;SDS011;23834;48.080;11.682;2022-08-01T00:12:30;2.70;;;2.57;;
38023;SDS011;23834;48.080;11.682;2022-08-01T00:14:56;2.30;;;2.20;;
38023;SDS011;23834;48.080;11.682;2022-08-01T00:17:21;2.37;;;2.27;;
38023;SDS011;23834;48.080;11.682;2022-08-01T00:19:46;2.53;;;2.43;;
38023;SDS011;23834;48.080;11.682;2022-08-01T00:22:11;2.60;;;2.50;;
38023;SDS011;23834;48.080;11.682;2022-08-01T00:24:36;2.40;;;2.30;;
38023;SDS011;23834;48.080;11.682;2022-08-01T00:27:02;2.40;;;2.30;;
38023;SDS011;23834;48.080;11.682;2022-08-01T00:29:27;2.70;;;2.50;;
38023;SDS011;23834;48.080;11.682;2022-08-01T00:31:52;2.67;;;2.47;;
38023;SDS011;23834;48.080;11.682;2022-08-01T00:34:17;2.23;;;2.13;;
38023;SDS011;23834;48.080;11.682;2022-08-01T00:36:42;3.07;;;2.30;;
38023;SDS011;23834;48.080;11.682;2022-08-01T00:39:08;2.53;;;2.33;;
38023;SDS011;23834;48.080;11.682;2022-08-01T00:41:33;2.47;;;2.37;;
38023;SDS011;23834;48.080;11.682;2022-08-01T00:44:01;2.30;;;2.20;;
38023;SDS011;23834;48.080;11.682;2022-08-01T00:46:26;2.40;;;2.30;;
38023;SDS011;23834;48.080;11.682;2022-08-01T00:48:51;2.30;;;2.20;;
38023;SDS011;23834;48.080;11.682;2022-08-01T00:51:18;2.33;;;2.23;;
38023;SDS011;23834;48.080;11.682;2022-08-01T00:53:43;2.20;;;2.10;;
38023;SDS011;23834;48.080;11.682;2022-08-01T00:56:08;2.53;;;2.33;;
38023;SDS011;23834;48.080;11.682;2022-08-01T00:58:34;2.47;;;2.27;;
38023;SDS011;23834;48.080;11.682;2022-08-01T01:00:59;2.37;;;2.27;;
38023;SDS011;23834;48.080;11.682;2022-08-01T01:03:25;2.30;;;2.20;;
38023;SDS011;23834;48.080;11.682;2022-08-01T01:08:27;2.60;;;2.50;;
38023;SDS011;23834;48.080;11.682;2022-08-01T01:11:11;2.60;;;2.50;;
38023;SDS011;23834;48.080;11.682;2022-08-01T01:13:41;2.20;;;2.10;;
38023;SDS011;23834;48.080;11.682;2022-08-01T01:16:12;2.60;;;2.40;;
38023;SDS011;23834;48.080;11.682;2022-08-01T01:18:40;2.80;;;2.60;;
38023;SDS011;23834;48.080;11.682;2022-08-01T01:23:46;2.60;;;2.40;;
38023;SDS011;23834;48.080;11.682;2022-08-01T01:26:23;2.63;;;2.53;;
38023;SDS011;23834;48.080;11.682;2022-08-01T01:31:23;2.47;;;2.37;;
38023;SDS011;23834;48.080;11.682;2022-08-01T01:33:49;2.40;;;2.30;;
38023;SDS011;23834;48.080;11.682;2022-08-01T01:36:15;2.70;;;2.50;;
38023;SDS011;23834;48.080;11.682;2022-08-01T01:38:43;2.40;;;2.30;;
38023;SDS011;23834;48.080;11.682;2022-08-01T01:41:12;2.27;;;2.17;;
38023;SDS011;23834;48.080;11.682;2022-08-01T01:43:39;2.50;;;2.40;;
38023;SDS011;23834;48.080;11.682;2022-08-01T01:46:04;3.10;;;2.90;;
38023;SDS011;23834;48.080;11.682;2022-08-01T01:48:29;2.60;;;2.40;;
38023;SDS011;23834;48.080;11.682;2022-08-01T01:50:55;2.27;;;2.17;;
38023;SDS011;23834;48.080;11.682;2022-08-01T01:53:21;2.70;;;2.60;;
38023;SDS011;23834;48.080;11.682;2022-08-01T01:55:48;2.33;;;2.23;;
38023;SDS011;23834;48.080;11.682;2022-08-01T01:58:14;2.77;;;2.67;;
38023;SDS011;23834;48.080;11.682;2022-08-01T02:00:40;2.40;;;2.30;;
38023;SDS011;23834;48.080;11.682;2022-08-01T02:03:07;2.37;;;2.27;;
38023;SDS011;23834;48.080;11.682;2022-08-01T02:05:33;2.37;;;2.27;;
38023;SDS011;23834;48.080;11.682;2022-08-01T02:07:59;2.40;;;2.30;;
38023;SDS011;23834;48.080;11.682;2022-08-01T02:10:25;2.40;;;2.30;;
38023;SDS011;23834;48.080;11.682;2022-08-01T02:12:51;2.93;;;2.73;;
38023;SDS011;23834;48.080;11.682;2022-08-01T02:15:17;3.23;;;3.03;;
38023;SDS011;23834;48.080;11.682;2022-08-01T02:17:43;2.47;;;2.37;;
38023;SDS011;23834;48.080;11.682;2022-08-01T02:20:09;2.53;;;2.33;;
38023;SDS011;23834;48.080;11.682;2022-08-01T02:22:40;2.63;;;2.53;;
38023;SDS011;23834;48.080;11.682;2022-08-01T02:25:11;2.67;;;2.47;;
38023;SDS011;23834;48.080;11.682;2022-08-01T02:27:41;2.80;;;2.60;;
38023;SDS011;23834;48.080;11.682;2022-08-01T02:30:08;2.60;;;2.50;;
38023;SDS011;23834;48.080;11.682;2022-08-01T02:32:40;2.80;;;2.60;;
38023;SDS011;23834;48.080;11.682;2022-08-01T02:35:07;2.63;;;2.43;;
38023;SDS011;23834;48.080;11.682;2022-08-01T02:37:34;2.50;;;2.40;;
38023;SDS011;23834;48.080;11.682;2022-08-01T02:40:01;2.63;;;2.47;;
38023;SDS011;23834;48.080;11.682;2022-08-01T02:42:28;2.73;;;2.53;;
38023;SDS011;23834;48.080;11.682;2022-08-01T02:44:55;2.63;;;2.53;;
38023;SDS011;23834;48.080;11.682;2022-08-01T02:47:21;3.00;;;2.80;;
38023;SDS011;23834;48.080;11.682;2022-08-01T02:49:48;2.93;;;2.83;;
38023;SDS011;23834;48.080;11.682;2022-08-01T02:52:15;2.60;;;2.40;;
38023;SDS011;23834;48.080;11.682;2022-08-01T02:54:41;2.23;;;2.13;;
38023;SDS011;23834;48.080;11.682;2022-08-01T02:57:07;2.70;;;2.60;;
38023;SDS011;23834;48.080;11.682;2022-08-01T02:59:33;2.70;;;2.50;;
38023;SDS011;23834;48.080;11.682;2022-08-01T03:01:59;2.53;;;2.43;;
38023;SDS011;23834;48.080;11.682;2022-08-01T03:04:25;2.97;;;2.77;;
38023;SDS011;23834;48.080;11.682;2022-08-01T03:06:51;3.13;;;2.93;;
38023;SDS011;23834;48.080;11.682;2022-08-01T03:09:17;2.67;;;2.57;;
38023;SDS011;23834;48.080;11.682;2022-08-01T03:11:43;2.60;;;2.47;;
38023;SDS011;23834;48.080;11.682;2022-08-01T03:14:09;2.40;;;2.30;;
38023;SDS011;23834;48.080;11.682;2022-08-01T03:16:35;2.57;;;2.40;;
38023;SDS011;23834;48.080;11.682;2022-08-01T03:19:01;2.97;;;2.77;;
38023;SDS011;23834;48.080;11.682;2022-08-01T03:21:27;2.53;;;2.43;;
38023;SDS011;23834;48.080;11.682;2022-08-01T03:23:52;2.60;;;2.50;;
38023;SDS011;23834;48.080;11.682;2022-08-01T03:26:21;3.47;;;2.93;;
38023;SDS011;23834;48.080;11.682;2022-08-01T03:28:47;2.47;;;2.37;;
38023;SDS011;23834;48.080;11.682;2022-08-01T03:31:13;2.50;;;2.40;;
38023;SDS011;23834;48.080;11.682;2022-08-01T03:33:39;3.50;;;2.87;;
38023;SDS011;23834;48.080;11.682;2022-08-01T03:36:04;2.53;;;2.43;;
38023;SDS011;23834;48.080;11.682;2022-08-01T03:38:29;2.37;;;2.27;;
38023;SDS011;23834;48.080;11.682;2022-08-01T03:40:57;2.90;;;2.70;;
38023;SDS011;23834;48.080;11.682;2022-08-01T03:43:33;2.83;;;2.73;;
38023;SDS011;23834;48.080;11.682;2022-08-01T03:46:01;2.73;;;2.63;;
38023;SDS011;23834;48.080;11.682;2022-08-01T03:48:29;3.07;;;2.87;;
38023;SDS011;23834;48.080;11.682;2022-08-01T03:50:57;2.50;;;2.40;;
38023;SDS011;23834;48.080;11.682;2022-08-01T03:53:24;2.70;;;2.60;;
38023;SDS011;23834;48.080;11.682;2022-08-01T03:55:51;2.73;;;2.53;;
38023;SDS011;23834;48.080;11.682;2022-08-01T03:58:17;2.90;;;2.70;;
38023;SDS011;23834;48.080;11.682;2022-08-01T04:00:42;3.00;;;2.90;;
38023;SDS011;23834;48.080;11.682;2022-08-01T04:03:08;2.53;;;2.43;;
38023;SDS011;23834;48.080;11.682;2022-08-01T04:05:34;2.63;;;2.53;;
38023;SDS011;23834;48.080;11.682;2022-08-01T04:08:00;2.37;;;2.27;;
38023;SDS011;23834;48.080;11.682;2022-08-01T04:10:27;2.73;;;2.63;;
38023;SDS011;23834;48.080;11.682;2022-08-01T04:12:52;2.50;;;2.30;;
38023;SDS011;23834;48.080;11.682;2022-08-01T04:15:17;2.50;;;2.40;;
38023;SDS011;23834;48.080;11.682;2022-08-01T04:17:43;3.00;;;2.90;;
38023;SDS011;23834;48.080;11.682;2022-08-01T04:20:08;2.50;;;2.40;;
38023;SDS011;23834;48.080;11.682;2022-08-01T04:22:34;2.70;;;2.60;;
38023;SDS011;23834;48.080;11.682;2022-08-01T04:25:00;2.90;;;2.70;;
38023;SDS011;23834;48.080;11.682;2022-08-01T04:27:31;2.90;;;2.70;;
38023;SDS011;23834;48.080;11.682;2022-08-01T04:29:58;2.63;;;2.53;;
38023;SDS011;23834;48.080;11.682;2022-08-01T04:32:23;2.60;;;2.40;;
38023;SDS011;23834;48.080;11.682;2022-08-01T04:34:50;2.73;;;2.60;;
38023;SDS011;23834;48.080;11.682;2022-08-01T04:37:15;2.53;;;2.37;;
38023;SDS011;23834;48.080;11.682;2022-08-01T04:39:42;2.77;;;2.57;;
38023;SDS011;23834;48.080;11.682;2022-08-01T04:42:07;2.63;;;2.43;;
38023;SDS011;23834;48.080;11.682;2022-08-01T04:44:33;2.53;;;2.43;;
38023;SDS011;23834;48.080;11.682;2022-08-01T04:47:01;2.93;;;2.73;;
38023;SDS011;23834;48.080;11.682;2022-08-01T04:49:28;2.53;;;2.43;;
38023;SDS011;23834;48.080;11.682;2022-08-01T04:51:55;3.10;;;2.90;;
38023;SDS011;23834;48.080;11.682;2022-08-01T04:54:25;2.47;;;2.37;;
38023;SDS011;23834;48.080;11.682;2022-08-01T04:56:50;2.73;;;2.60;;
38023;SDS011;23834;48.080;11.682;2022-08-01T04:59:18;2.50;;;2.40;;
38023;SDS011;23834;48.080;11.682;2022-08-01T05:02:02;2.60;;;2.50;;
38023;SDS011;23834;48.080;11.682;2022-08-01T05:04:27;2.30;;;2.20;;
38023;SDS011;23834;48.080;11.682;2022-08-01T05:06:52;2.47;;;2.37;;
38023;SDS011;23834;48.080;11.682;2022-08-01T05:09:17;2.60;;;2.50;;
38023;SDS011;23834;48.080;11.682;2022-08-01T05:11:42;2.60;;;2.50;;
38023;SDS011;23834;48.080;11.682;2022-08-01T05:14:08;2.93;;;2.73;;
38023;SDS011;23834;48.080;11.682;2022-08-01T05:16:33;2.40;;;2.30;;
38023;SDS011;23834;48.080;11.682;2022-08-01T05:18:58;2.40;;;2.30;;
38023;SDS011;23834;48.080;11.682;2022-08-01T05:21:23;2.53;;;2.43;;
38023;SDS011;23834;48.080;11.682;2022-08-01T05:23:48;2.63;;;2.53;;
38023;SDS011;23834;48.080;11.682;2022-08-01T05:26:14;2.40;;;2.30;;
38023;SDS011;23834;48.080;11.682;2022-08-01T05:28:39;3.20;;;3.00;;
38023;SDS011;23834;48.080;11.682;2022-08-01T05:31:04;2.70;;;2.60;;
38023;SDS011;23834;48.080;11.682;2022-08-01T05:33:29;2.50;;;2.40;;
38023;SDS011;23834;48.080;11.682;2022-08-01T05:35:54;2.60;;;2.50;;
38023;SDS011;23834;48.080;11.682;2022-08-01T05:38:19;2.50;;;2.40;;
38023;SDS011;23834;48.080;11.682;2022-08-01T05:40:45;2.50;;;2.40;;
38023;SDS011;23834;48.080;11.682;2022-08-01T05:43:10;2.50;;;2.40;;
38023;SDS011;23834;48.080;11.682;2022-08-01T05:45:35;3.07;;;2.87;;
38023;SDS011;23834;48.080;11.682;2022-08-01T05:48:00;2.63;;;2.53;;
38023;SDS011;23834;48.080;11.682;2022-08-01T05:50:25;2.30;;;2.20;;
38023;SDS011;23834;48.080;11.682;2022-08-01T05:52:50;2.63;;;2.43;;
38023;SDS011;23834;48.080;11.682;2022-08-01T05:55:16;2.63;;;2.43;;
38023;SDS011;23834;48.080;11.682;2022-08-01T05:57:41;2.70;;;2.60;;
38023;SDS011;23834;48.080;11.682;2022-08-01T06:00:06;2.57;;;2.37;;
38023;SDS011;23834;48.080;11.682;2022-08-01T06:02:32;2.97;;;2.77;;
38023;SDS011;23834;48.080;11.682;2022-08-01T06:04:57;2.50;;;2.40;;
38023;SDS011;23834;48.080;11.682;2022-08-01T06:07:23;2.90;;;2.70;;
38023;SDS011;23834;48.080;11.682;2022-08-01T06:09:48;2.87;;;2.77;;
38023;SDS011;23834;48.080;11.682;2022-08-01T06:12:13;2.80;;;2.70;;
38023;SDS011;23834;48.080;11.682;2022-08-01T06:14:38;3.03;;;2.83;;
38023;SDS011;23834;48.080;11.682;2022-08-01T06:17:03;3.27;;;2.97;;
38023;SDS011;23834;48.080;11.682;2022-08-01T06:19:29;2.40;;;2.30;;
38023;SDS011;23834;48.080;11.682;2022-08-01T06:21:54;2.80;;;2.70;;
38023;SDS011;23834;48.080;11.682;2022-08-01T06:24:19;2.97;;;2.77;;
38023;SDS011;23834;48.080;11.682;2022-08-01T06:26:44;2.50;;;2.40;;
38023;SDS011;23834;48.080;11.682;2022-08-01T06:29:09;2.47;;;2.37;;
38023;SDS011;23834;48.080;11.682;2022-08-01T06:31:35;2.90;;;2.70;;
38023;SDS011;23834;48.080;11.682;2022-08-01T06:34:00;2.67;;;2.57;;
38023;SDS011;23834;48.080;11.682;2022-08-01T06:36:25;2.60;;;2.50;;
38023;SDS011;23834;48.080;11.682;2022-08-01T06:38:50;2.70;;;2.50;;
38023;SDS011;23834;48.080;11.682;2022-08-01T06:41:15;2.70;;;2.50;;
38023;SDS011;23834;48.080;11.682;2022-08-01T06:43:41;2.40;;;2.30;;
38023;SDS011;23834;48.080;11.682;2022-08-01T06:46:06;2.50;;;2.40;;
38023;SDS011;23834;48.080;11.682;2022-08-01T06:48:31;3.03;;;2.83;;
38023;SDS011;23834;48.080;11.682;2022-08-01T06:50:56;2.47;;;2.30;;
38023;SDS011;23834;48.080;11.682;2022-08-01T06:53:34;2.50;;;2.40;;
38023;SDS011;23834;48.080;11.682;2022-08-01T06:55:59;2.60;;;2.50;;
38023;SDS011;23834;48.080;11.682;2022-08-01T06:58:25;2.77;;;2.53;;
38023;SDS011;23834;48.080;11.682;2022-08-01T07:00:50;2.60;;;2.50;;
38023;SDS011;23834;48.080;11.682;2022-08-01T07:03:16;2.77;;;2.63;;
38023;SDS011;23834;48.080;11.682;2022-08-01T07:05:41;3.03;;;2.83;;
38023;SDS011;23834;48.080;11.682;2022-08-01T07:08:06;2.73;;;2.63;;
38023;SDS011;23834;48.080;11.682;2022-08-01T07:10:31;2.67;;;2.57;;
38023;SDS011;23834;48.080;11.682;2022-08-01T07:12:57;2.43;;;2.23;;
38023;SDS011;23834;48.080;11.682;2022-08-01T07:15:22;2.53;;;2.43;;
38023;SDS011;23834;48.080;11.682;2022-08-01T07:17:51;2.70;;;2.50;;
38023;SDS011;23834;48.080;11.682;2022-08-01T07:20:16;2.60;;;2.50;;
38023;SDS011;23834;48.080;11.682;2022-08-01T07:22:42;2.40;;;2.30;;
38023;SDS011;23834;48.080;11.682;2022-08-01T07:25:07;2.73;;;2.60;;
38023;SDS011;23834;48.080;11.682;2022-08-01T07:27:33;2.93;;;2.73;;
38023;SDS011;23834;48.080;11.682;2022-08-01T07:29:58;2.57;;;2.47;;
38023;SDS011;23834;48.080;11.682;2022-08-01T07:32:23;2.97;;;2.80;;
38023;SDS011;23834;48.080;11.682;2022-08-01T07:34:48;2.20;;;2.10;;
38023;SDS011;23834;48.080;11.682;2022-08-01T07:37:13;2.83;;;2.67;;
38023;SDS011;23834;48.080;11.682;2022-08-01T07:39:39;2.50;;;2.40;;
38023;SDS011;23834;48.080;11.682;2022-08-01T07:42:04;2.63;;;2.53;;
38023;SDS011;23834;48.080;11.682;2022-08-01T07:44:29;2.30;;;2.20;;
38023;SDS011;23834;48.080;11.682;2022-08-01T07:46:54;2.80;;;2.70;;
38023;SDS011;23834;48.080;11.682;2022-08-01T07:49:20;2.50;;;2.40;;
38023;SDS011;23834;48.080;11.682;2022-08-01T07:51:46;3.10;;;2.90;;
38023;SDS011;23834;48.080;11.682;2022-08-01T07:54:11;2.60;;;2.50;;
38023;SDS011;23834;48.080;11.682;2022-08-01T07:56:37;3.03;;;2.83;;
38023;SDS011;23834;48.080;11.682;2022-08-01T07:59:02;2.50;;;2.40;;
38023;SDS011;23834;48.080;11.682;2022-08-01T08:01:27;2.60;;;2.50;;
38023;SDS011;23834;48.080;11.682;2022-08-01T08:03:53;3.73;;;3.43;;
38023;SDS011;23834;48.080;11.682;2022-08-01T08:06:18;2.88;;;2.67;;
38023;SDS011;23834;48.080;11.682;2022-08-01T08:08:43;2.27;;;2.17;;
38023;SDS011;23834;48.080;11.682;2022-08-01T08:11:08;2.67;;;2.57;;
38023;SDS011;23834;48.080;11.682;2022-08-01T08:13:33;2.27;;;2.17;;
38023;SDS011;23834;48.080;11.682;2022-08-01T08:15:59;2.60;;;2.40;;
38023;SDS011;23834;48.080;11.682;2022-08-01T08:18:24;2.70;;;2.50;;
38023;SDS011;23834;48.080;11.682;2022-08-01T08:20:49;2.60;;;2.40;;
38023;SDS011;23834;48.080;11.682;2022-08-01T08:23:15;2.37;;;2.27;;
38023;SDS011;23834;48.080;11.682;2022-08-01T08:25:59;2.73;;;2.60;;
38023;SDS011;23834;48.080;11.682;2022-08-01T08:28:24;2.50;;;2.33;;
38023;SDS011;23834;48.080;11.682;2022-08-01T08:30:49;2.30;;;2.20;;
38023;SDS011;23834;48.080;11.682;2022-08-01T08:33:15;2.80;;;2.60;;
38023;SDS011;23834;48.080;11.682;2022-08-01T08:35:40;2.67;;;2.47;;
38023;SDS011;23834;48.080;11.682;2022-08-01T08:38:06;2.50;;;2.30;;
38023;SDS011;23834;48.080;11.682;2022-08-01T08:40:31;2.70;;;2.50;;
38023;SDS011;23834;48.080;11.682;2022-08-01T08:42:57;2.60;;;2.40;;
38023;SDS011;23834;48.080;11.682;2022-08-01T08:45:22;1.97;;;1.87;;
38023;SDS011;23834;48.080;11.682;2022-08-01T08:47:48;3.00;;;2.80;;
38023;SDS011;23834;48.080;11.682;2022-08-01T08:50:14;2.40;;;2.30;;
38023;SDS011;23834;48.080;11.682;2022-08-01T08:52:39;2.80;;;2.60;;
38023;SDS011;23834;48.080;11.682;2022-08-01T08:55:05;2.90;;;2.70;;
38023;SDS011;23834;48.080;11.682;2022-08-01T08:57:30;2.43;;;2.23;;
38023;SDS011;23834;48.080;11.682;2022-08-01T08:59:55;2.93;;;2.73;;
38023;SDS011;23834;48.080;11.682;2022-08-01T09:02:21;2.40;;;2.30;;
38023;SDS011;23834;48.080;11.682;2022-08-01T09:04:48;2.97;;;2.77;;
38023;SDS011;23834;48.080;11.682;2022-08-01T09:07:13;2.90;;;2.70;;
38023;SDS011;23834;48.080;11.682;2022-08-01T09:09:39;2.70;;;2.50;;
38023;SDS011;23834;48.080;11.682;2022-08-01T09:12:04;2.13;;;2.03;;
38023;SDS011;23834;48.080;11.682;2022-08-01T09:14:29;2.80;;;2.60;;
38023;SDS011;23834;48.080;11.682;2022-08-01T09:17:14;2.70;;;2.50;;
38023;SDS011;23834;48.080;11.682;2022-08-01T09:19:45;2.33;;;2.23;;
38023;SDS011;23834;48.080;11.682;2022-08-01T09:22:14;2.80;;;2.60;;
38023;SDS011;23834;48.080;11.682;2022-08-01T09:24:42;2.70;;;2.50;;
38023;SDS011;23834;48.080;11.682;2022-08-01T09:27:21;2.40;;;2.30;;
38023;SDS011;23834;48.080;11.682;2022-08-01T09:29:49;2.30;;;2.20;;
38023;SDS011;23834;48.080;11.682;2022-08-01T09:32:15;2.17;;;2.07;;
38023;SDS011;23834;48.080;11.682;2022-08-01T09:34:40;2.57;;;2.37;;
38023;SDS011;23834;48.080;11.682;2022-08-01T09:37:05;2.63;;;2.43;;
38023;SDS011;23834;48.080;11.682;2022-08-01T09:39:32;2.43;;;2.33;;
38023;SDS011;23834;48.080;11.682;2022-08-01T09:41:59;2.57;;;2.37;;
38023;SDS011;23834;48.080;11.682;2022-08-01T09:44:41;2.60;;;2.50;;
38023;SDS011;23834;48.080;11.682;2022-08-01T09:47:06;3.20;;;3.00;;
38023;SDS011;23834;48.080;11.682;2022-08-01T09:49:32;2.60;;;2.50;;
38023;SDS011;23834;48.080;11.682;2022-08-01T09:51:59;2.30;;;2.20;;
38023;SDS011;23834;48.080;11.682;2022-08-01T09:54:34;2.67;;;2.47;;
38023;SDS011;23834;48.080;11.682;2022-08-01T09:57:15;2.47;;;2.37;;
38023;SDS011;23834;48.080;11.682;2022-08-01T09:59:44;2.43;;;2.30;;
38023;SDS011;23834;48.080;11.682;2022-08-01T10:02:11;2.33;;;2.23;;
38023;SDS011;23834;48.080;11.682;2022-08-01T10:04:45;2.37;;;2.27;;
38023;SDS011;23834;48.080;11.682;2022-08-01T10:07:10;2.20;;;2.10;;
38023;SDS011;23834;48.080;11.682;2022-08-01T10:09:36;2.60;;;2.50;;
38023;SDS011;23834;48.080;11.682;2022-08-01T10:12:02;2.40;;;2.30;;
38023;SDS011;23834;48.080;11.682;2022-08-01T10:14:28;2.60;;;2.50;;
38023;SDS011;23834;48.080;11.682;2022-08-01T10:16:53;2.70;;;2.50;;
38023;SDS011;23834;48.080;11.682;2022-08-01T10:19:24;2.40;;;2.30;;
38023;SDS011;23834;48.080;11.682;2022-08-01T10:21:50;2.40;;;2.30;;
38023;SDS011;23834;48.080;11.682;2022-08-01T10:24:17;2.50;;;2.40;;
38023;SDS011;23834;48.080;11.682;2022-08-01T10:26:43;2.50;;;2.40;;
38023;SDS011;23834;48.080;11.682;2022-08-01T10:29:09;2.33;;;2.13;;
38023;SDS011;23834;48.080;11.682;2022-08-01T10:31:34;2.37;;;2.27;;
38023;SDS011;23834;48.080;11.682;2022-08-01T10:33:59;2.20;;;2.10;;
38023;SDS011;23834;48.080;11.682;2022-08-01T10:36:26;2.50;;;2.40;;
38023;SDS011;23834;48.080;11.682;2022-08-01T10:38:55;2.30;;;2.20;;
38023;SDS011;23834;48.080;11.682;2022-08-01T10:41:20;2.30;;;2.20;;
38023;SDS011;23834;48.080;11.682;2022-08-01T10:43:45;2.30;;;2.20;;
38023;SDS011;23834;48.080;11.682;2022-08-01T10:46:11;2.60;;;2.40;;
38023;SDS011;23834;48.080;11.682;2022-08-01T10:48:45;2.10;;;2.00;;
38023;SDS011;23834;48.080;11.682;2022-08-01T10:51:12;2.60;;;2.40;;
38023;SDS011;23834;48.080;11.682;2022-08-01T10:53:37;2.17;;;2.07;;
38023;SDS011;23834;48.080;11.682;2022-08-01T10:56:10;2.10;;;2.00;;
38023;SDS011;23834;48.080;11.682;2022-08-01T10:58:36;2.80;;;2.70;;
38023;SDS011;23834;48.080;11.682;2022-08-01T11:01:15;2.60;;;2.50;;
38023;SDS011;23834;48.080;11.682;2022-08-01T11:03:41;2.23;;;2.13;;
38023;SDS011;23834;48.080;11.682;2022-08-01T11:06:07;2.33;;;2.23;;
38023;SDS011;23834;48.080;11.682;2022-08-01T11:08:40;1.93;;;1.83;;
38023;SDS011;23834;48.080;11.682;2022-08-01T11:11:07;2.80;;;2.60;;
38023;SDS011;23834;48.080;11.682;2022-08-01T11:16:26;2.33;;;2.23;;
38023;SDS011;23834;48.080;11.682;2022-08-01T11:18:51;2.13;;;2.03;;
38023;SDS011;23834;48.080;11.682;2022-08-01T11:21:16;2.20;;;2.10;;
38023;SDS011;23834;48.080;11.682;2022-08-01T11:23:47;2.10;;;2.00;;
38023;SDS011;23834;48.080;11.682;2022-08-01T11:26:13;2.00;;;1.90;;
38023;SDS011;23834;48.080;11.682;2022-08-01T11:28:38;2.07;;;1.97;;
38023;SDS011;23834;48.080;11.682;2022-08-01T11:38:34;2.60;;;2.50;;
38023;SDS011;23834;48.080;11.682;2022-08-01T11:41:12;1.87;;;1.77;;
38023;SDS011;23834;48.080;11.682;2022-08-01T11:54:31;2.00;;;1.90;;
38023;SDS011;23834;48.080;11.682;2022-08-01T11:57:00;2.33;;;2.23;;
38023;SDS011;23834;48.080;11.682;2022-08-01T11:59:27;1.90;;;1.80;;
38023;SDS011;23834;48.080;11.682;2022-08-01T12:01:53;2.10;;;2.00;;
38023;SDS011;23834;48.080;11.682;2022-08-01T12:04:18;1.97;;;1.87;;
38023;SDS011;23834;48.080;11.682;2022-08-01T12:06:44;2.37;;;2.23;;
38023;SDS011;23834;48.080;11.682;2022-08-01T12:09:19;2.37;;;2.27;;
38023;SDS011;23834;48.080;11.682;2022-08-01T12:11:44;2.20;;;2.10;;
38023;SDS011;23834;48.080;11.682;2022-08-01T12:14:15;2.00;;;1.90;;
38023;SDS011;23834;48.080;11.682;2022-08-01T12:16:40;2.10;;;2.00;;
38023;SDS011;23834;48.080;11.682;2022-08-01T12:19:05;2.23;;;2.10;;
38023;SDS011;23834;48.080;11.682;2022-08-01T12:21:30;1.90;;;1.80;;
38023;SDS011;23834;48.080;11.682;2022-08-01T12:24:02;2.20;;;2.10;;
38023;SDS011;23834;48.080;11.682;2022-08-01T12:26:40;2.20;;;2.10;;
38023;SDS011;23834;48.080;11.682;2022-08-01T12:29:05;1.90;;;1.80;;
38023;SDS011;23834;48.080;11.682;2022-08-01T12:31:31;1.90;;;1.80;;
38023;SDS011;23834;48.080;11.682;2022-08-01T12:33:56;2.27;;;2.17;;
38023;SDS011;23834;48.080;11.682;2022-08-01T12:36:28;2.03;;;1.93;;
38023;SDS011;23834;48.080;11.682;2022-08-01T12:38:53;2.17;;;2.07;;
38023;SDS011;23834;48.080;11.682;2022-08-01T12:41:18;2.30;;;2.20;;
38023;SDS011;23834;48.080;11.682;2022-08-01T12:43:44;2.00;;;1.90;;
38023;SDS011;23834;48.080;11.682;2022-08-01T12:46:09;1.97;;;1.87;;
38023;SDS011;23834;48.080;11.682;2022-08-01T12:48:40;2.27;;;2.07;;
38023;SDS011;23834;48.080;11.682;2022-08-01T12:51:06;2.00;;;1.90;;
38023;SDS011;23834;48.080;11.682;2022-08-01T12:53:34;2.03;;;1.93;;
38023;SDS011;23834;48.080;11.682;2022-08-01T12:55:59;1.87;;;1.77;;
38023;SDS011;23834;48.080;11.682;2022-08-01T12:58:29;1.83;;;1.73;;
38023;SDS011;23834;48.080;11.682;2022-08-01T13:01:02;2.00;;;1.90;;
38023;SDS011;23834;48.080;11.682;2022-08-01T13:03:28;1.70;;;1.60;;
38023;SDS011;23834;48.080;11.682;2022-08-01T13:05:54;2.00;;;1.90;;
38023;SDS011;23834;48.080;11.682;2022-08-01T13:11:06;1.80;;;1.70;;
38023;SDS011;23834;48.080;11.682;2022-08-01T13:13:40;1.90;;;1.80;;
38023;SDS011;23834;48.080;11.682;2022-08-01T13:16:06;1.80;;;1.70;;
38023;SDS011;23834;48.080;11.682;2022-08-01T13:18:33;1.93;;;1.83;;
38023;SDS011;23834;48.080;11.682;2022-08-01T13:23:33;1.87;;;1.77;;
38023;SDS011;23834;48.080;11.682;2022-08-01T13:25:58;2.10;;;2.00;;
38023;SDS011;23834;48.080;11.682;2022-08-01T13:28:24;2.00;;;1.90;;
38023;SDS011;23834;48.080;11.682;2022-08-01T13:30:57;1.80;;;1.70;;
38023;SDS011;23834;48.080;11.682;2022-08-01T13:33:23;2.27;;;2.07;;
38023;SDS011;23834;48.080;11.682;2022-08-01T13:35:50;2.00;;;1.90;;
38023;SDS011;23834;48.080;11.682;2022-08-01T13:38:15;2.07;;;1.93;;
38023;SDS011;23834;48.080;11.682;2022-08-01T13:40:40;1.73;;;1.63;;
38023;SDS011;23834;48.080;11.682;2022-08-01T13:43:05;1.90;;;1.80;;
38023;SDS011;23834;48.080;11.682;2022-08-01T13:45:30;1.53;;;1.53;;
38023;SDS011;23834;48.080;11.682;2022-08-01T13:47:55;2.10;;;2.00;;
38023;SDS011;23834;48.080;11.682;2022-08-01T13:50:21;1.83;;;1.73;;
38023;SDS011;23834;48.080;11.682;2022-08-01T13:52:46;1.83;;;1.73;;
38023;SDS011;23834;48.080;11.682;2022-08-01T13:55:11;2.00;;;1.90;;
38023;SDS011;23834;48.080;11.682;2022-08-01T13:57:36;1.80;;;1.70;;
38023;SDS011;23834;48.080;11.682;2022-08-01T14:00:02;1.70;;;1.60;;
38023;SDS011;23834;48.080;11.682;2022-08-01T14:02:27;2.00;;;1.80;;
38023;SDS011;23834;48.080;11.682;2022-08-01T14:04:53;1.40;;;1.40;;
38023;SDS011;23834;48.080;11.682;2022-08-01T14:07:20;2.10;;;1.90;;
38023;SDS011;23834;48.080;11.682;2022-08-01T14:09:45;1.90;;;1.80;;
38023;SDS011;23834;48.080;11.682;2022-08-01T14:12:10;1.70;;;1.60;;
38023;SDS011;23834;48.080;11.682;2022-08-01T14:14:36;1.80;;;1.70;;
38023;SDS011;23834;48.080;11.682;2022-08-01T14:17:01;1.80;;;1.70;;
38023;SDS011;23834;48.080;11.682;2022-08-01T14:19:26;1.73;;;1.63;;
38023;SDS011;23834;48.080;11.682;2022-08-01T14:21:52;1.70;;;1.60;;
38023;SDS011;23834;48.080;11.682;2022-08-01T14:24:17;1.80;;;1.70;;
38023;SDS011;23834;48.080;11.682;2022-08-01T14:26:43;1.77;;;1.67;;
38023;SDS011;23834;48.080;11.682;2022-08-01T14:29:08;1.40;;;1.30;;
38023;SDS011;23834;48.080;11.682;2022-08-01T14:31:33;2.00;;;1.90;;
38023;SDS011;23834;48.080;11.682;2022-08-01T14:33:58;1.83;;;1.73;;
38023;SDS011;23834;48.080;11.682;2022-08-01T14:36:23;1.60;;;1.50;;
38023;SDS011;23834;48.080;11.682;2022-08-01T14:38:49;1.63;;;1.53;;
38023;SDS011;23834;48.080;11.682;2022-08-01T14:41:14;1.67;;;1.57;;
38023;SDS011;23834;48.080;11.682;2022-08-01T14:43:39;1.70;;;1.60;;
38023;SDS011;23834;48.080;11.682;2022-08-01T14:46:05;1.67;;;1.60;;
38023;SDS011;23834;48.080;11.682;2022-08-01T14:48:30;1.57;;;1.47;;
38023;SDS011;23834;48.080;11.682;2022-08-01T14:50:55;1.50;;;1.40;;
38023;SDS011;23834;48.080;11.682;2022-08-01T14:53:21;1.93;;;1.83;;
38023;SDS011;23834;48.080;11.682;2022-08-01T14:55:46;1.57;;;1.47;;
38023;SDS011;23834;48.080;11.682;2022-08-01T14:58:11;1.57;;;1.47;;
38023;SDS011;23834;48.080;11.682;2022-08-01T15:00:36;1.40;;;1.30;;
38023;SDS011;23834;48.080;11.682;2022-08-01T15:03:02;1.57;;;1.47;;